sensor_id;sensor_type;location;lat;lon;timestamp;P1;durP1;ratioP1;P2;durP2;ratioP2
64110;SDS011;50401;48.188;11.566;2022-07-21T00:02:18;24.17;;;5.18;;
64110;SDS011;50401;48.188;11.566;2022-07-21T00:04:44;17.02;;;5.03;;
64110;SDS011;50401;48.188;11.566;2022-07-21T00:07:09;12.35;;;5.78;;
64110;SDS011;50401;48.188;11.566;2022-07-21T00:09:35;12.10;;;5.28;;
64110;SDS011;50401;48.188;11.566;2022-07-21T00:12:01;9.98;;;6.55;;
64110;SDS011;50401;48.188;11.566;2022-07-21T00:14:27;10.20;;;5.47;;
64110;SDS011;50401;48.188;11.566;2022-07-21T00:16:53;10.15;;;5.70;;
64110;SDS011;50401;48.188;11.566;2022-07-21T00:19:18;10.85;;;5.40;;
64110;SDS011;50401;48.188;11.566;2022-07-21T00:21:43;7.60;;;4.90;;
64110;SDS011;50401;48.188;11.566;2022-07-21T00:24:09;11.18;;;6.00;;
64110;SDS011;50401;48.188;11.566;2022-07-21T00:26:34;9.80;;;5.30;;
64110;SDS011;50401;48.188;11.566;2022-07-21T00:28:59;10.13;;;5.47;;
64110;SDS011;50401;48.188;11.566;2022-07-21T00:31:25;7.10;;;5.60;;
64110;SDS011;50401;48.188;11.566;2022-07-21T00:33:50;12.55;;;6.00;;
64110;SDS011;50401;48.188;11.566;2022-07-21T00:36:17;9.73;;;5.88;;
64110;SDS011;50401;48.188;11.566;2022-07-21T00:38:43;12.68;;;6.00;;
64110;SDS011;50401;48.188;11.566;2022-07-21T00:41:08;9.10;;;5.70;;
64110;SDS011;50401;48.188;11.566;2022-07-21T00:43:34;9.15;;;6.35;;
64110;SDS011;50401;48.188;11.566;2022-07-21T00:45:59;11.05;;;6.25;;
64110;SDS011;50401;48.188;11.566;2022-07-21T00:48:25;10.95;;;6.57;;
64110;SDS011;50401;48.188;11.566;2022-07-21T00:50:50;16.48;;;7.95;;
64110;SDS011;50401;48.188;11.566;2022-07-21T00:53:19;16.65;;;9.60;;
64110;SDS011;50401;48.188;11.566;2022-07-21T00:55:45;21.00;;;10.95;;
64110;SDS011;50401;48.188;11.566;2022-07-21T00:58:11;16.80;;;10.90;;
64110;SDS011;50401;48.188;11.566;2022-07-21T01:00:37;27.27;;;11.57;;
64110;SDS011;50401;48.188;11.566;2022-07-21T01:03:02;24.55;;;12.75;;
64110;SDS011;50401;48.188;11.566;2022-07-21T01:05:28;25.85;;;12.48;;
64110;SDS011;50401;48.188;11.566;2022-07-21T01:07:54;19.80;;;11.27;;
64110;SDS011;50401;48.188;11.566;2022-07-21T01:10:21;15.38;;;8.98;;
64110;SDS011;50401;48.188;11.566;2022-07-21T01:12:48;21.02;;;7.78;;
64110;SDS011;50401;48.188;11.566;2022-07-21T01:15:14;17.17;;;7.60;;
64110;SDS011;50401;48.188;11.566;2022-07-21T01:17:41;10.93;;;6.38;;
64110;SDS011;50401;48.188;11.566;2022-07-21T01:20:08;11.63;;;7.13;;
64110;SDS011;50401;48.188;11.566;2022-07-21T01:22:36;16.60;;;7.13;;
64110;SDS011;50401;48.188;11.566;2022-07-21T01:25:04;12.32;;;7.65;;
64110;SDS011;50401;48.188;11.566;2022-07-21T01:27:30;18.00;;;8.68;;
64110;SDS011;50401;48.188;11.566;2022-07-21T01:29:56;15.02;;;8.73;;
64110;SDS011;50401;48.188;11.566;2022-07-21T01:32:22;13.00;;;8.57;;
64110;SDS011;50401;48.188;11.566;2022-07-21T01:34:47;15.88;;;8.13;;
64110;SDS011;50401;48.188;11.566;2022-07-21T01:39:43;16.52;;;6.72;;
64110;SDS011;50401;48.188;11.566;2022-07-21T01:42:27;12.13;;;6.78;;
64110;SDS011;50401;48.188;11.566;2022-07-21T01:44:53;11.73;;;7.20;;
64110;SDS011;50401;48.188;11.566;2022-07-21T01:47:18;18.75;;;7.07;;
64110;SDS011;50401;48.188;11.566;2022-07-21T01:49:45;10.07;;;6.57;;
64110;SDS011;50401;48.188;11.566;2022-07-21T01:52:10;12.55;;;6.53;;
64110;SDS011;50401;48.188;11.566;2022-07-21T01:54:36;14.48;;;6.78;;
64110;SDS011;50401;48.188;11.566;2022-07-21T01:57:01;13.43;;;8.95;;
64110;SDS011;50401;48.188;11.566;2022-07-21T01:59:27;20.83;;;12.95;;
64110;SDS011;50401;48.188;11.566;2022-07-21T02:01:52;16.98;;;11.10;;
64110;SDS011;50401;48.188;11.566;2022-07-21T02:04:18;20.17;;;10.68;;
64110;SDS011;50401;48.188;11.566;2022-07-21T02:06:44;17.52;;;9.52;;
64110;SDS011;50401;48.188;11.566;2022-07-21T02:09:09;12.02;;;7.93;;
64110;SDS011;50401;48.188;11.566;2022-07-21T02:11:35;17.67;;;8.80;;
64110;SDS011;50401;48.188;11.566;2022-07-21T02:14:00;15.45;;;7.30;;
64110;SDS011;50401;48.188;11.566;2022-07-21T02:16:26;17.00;;;7.10;;
64110;SDS011;50401;48.188;11.566;2022-07-21T02:18:51;17.52;;;7.50;;
64110;SDS011;50401;48.188;11.566;2022-07-21T02:21:17;16.50;;;7.38;;
64110;SDS011;50401;48.188;11.566;2022-07-21T02:23:42;12.65;;;7.15;;
64110;SDS011;50401;48.188;11.566;2022-07-21T02:26:08;15.32;;;7.22;;
64110;SDS011;50401;48.188;11.566;2022-07-21T02:28:33;10.07;;;6.57;;
64110;SDS011;50401;48.188;11.566;2022-07-21T02:30:59;11.05;;;6.88;;
64110;SDS011;50401;48.188;11.566;2022-07-21T02:33:24;19.60;;;7.65;;
64110;SDS011;50401;48.188;11.566;2022-07-21T02:35:49;15.95;;;7.78;;
64110;SDS011;50401;48.188;11.566;2022-07-21T02:38:15;17.80;;;7.53;;
64110;SDS011;50401;48.188;11.566;2022-07-21T02:40:41;15.18;;;7.60;;
64110;SDS011;50401;48.188;11.566;2022-07-21T02:43:07;14.00;;;7.20;;
64110;SDS011;50401;48.188;11.566;2022-07-21T02:45:32;20.40;;;7.93;;
64110;SDS011;50401;48.188;11.566;2022-07-21T02:48:03;14.70;;;7.35;;
64110;SDS011;50401;48.188;11.566;2022-07-21T02:50:31;16.20;;;7.53;;
64110;SDS011;50401;48.188;11.566;2022-07-21T02:53:05;11.98;;;7.63;;
64110;SDS011;50401;48.188;11.566;2022-07-21T02:55:33;17.10;;;8.23;;
64110;SDS011;50401;48.188;11.566;2022-07-21T02:58:06;19.70;;;7.75;;
64110;SDS011;50401;48.188;11.566;2022-07-21T03:00:44;20.60;;;8.20;;
64110;SDS011;50401;48.188;11.566;2022-07-21T03:03:14;15.52;;;9.02;;
64110;SDS011;50401;48.188;11.566;2022-07-21T03:05:41;24.55;;;10.82;;
64110;SDS011;50401;48.188;11.566;2022-07-21T03:08:07;24.30;;;11.98;;
64110;SDS011;50401;48.188;11.566;2022-07-21T03:10:34;17.83;;;12.35;;
64110;SDS011;50401;48.188;11.566;2022-07-21T03:13:00;30.25;;;14.50;;
64110;SDS011;50401;48.188;11.566;2022-07-21T03:15:25;24.75;;;13.18;;
64110;SDS011;50401;48.188;11.566;2022-07-21T03:17:51;23.38;;;13.40;;
64110;SDS011;50401;48.188;11.566;2022-07-21T03:20:18;24.50;;;14.27;;
64110;SDS011;50401;48.188;11.566;2022-07-21T03:22:46;29.38;;;13.57;;
64110;SDS011;50401;48.188;11.566;2022-07-21T03:25:11;35.95;;;13.25;;
64110;SDS011;50401;48.188;11.566;2022-07-21T03:27:37;25.80;;;13.63;;
64110;SDS011;50401;48.188;11.566;2022-07-21T03:30:06;20.75;;;11.90;;
64110;SDS011;50401;48.188;11.566;2022-07-21T03:32:33;26.02;;;12.63;;
64110;SDS011;50401;48.188;11.566;2022-07-21T03:34:59;19.67;;;11.27;;
64110;SDS011;50401;48.188;11.566;2022-07-21T03:37:25;19.70;;;12.32;;
64110;SDS011;50401;48.188;11.566;2022-07-21T03:39:51;18.33;;;11.75;;
64110;SDS011;50401;48.188;11.566;2022-07-21T03:42:16;15.25;;;11.20;;
64110;SDS011;50401;48.188;11.566;2022-07-21T03:44:42;17.48;;;10.85;;
64110;SDS011;50401;48.188;11.566;2022-07-21T03:47:07;14.85;;;11.63;;
64110;SDS011;50401;48.188;11.566;2022-07-21T03:49:32;21.15;;;10.70;;
64110;SDS011;50401;48.188;11.566;2022-07-21T03:51:58;22.02;;;11.48;;
64110;SDS011;50401;48.188;11.566;2022-07-21T03:54:23;24.42;;;11.68;;
64110;SDS011;50401;48.188;11.566;2022-07-21T03:56:49;18.63;;;10.38;;
64110;SDS011;50401;48.188;11.566;2022-07-21T03:59:14;27.52;;;12.25;;
64110;SDS011;50401;48.188;11.566;2022-07-21T04:01:39;20.35;;;12.52;;
64110;SDS011;50401;48.188;11.566;2022-07-21T04:04:05;21.98;;;12.00;;
64110;SDS011;50401;48.188;11.566;2022-07-21T04:06:30;20.23;;;11.80;;
64110;SDS011;50401;48.188;11.566;2022-07-21T04:08:56;23.05;;;11.73;;
64110;SDS011;50401;48.188;11.566;2022-07-21T04:11:21;21.67;;;11.93;;
64110;SDS011;50401;48.188;11.566;2022-07-21T04:13:46;24.35;;;12.82;;
64110;SDS011;50401;48.188;11.566;2022-07-21T04:16:12;24.80;;;11.80;;
64110;SDS011;50401;48.188;11.566;2022-07-21T04:18:37;27.30;;;14.55;;
64110;SDS011;50401;48.188;11.566;2022-07-21T04:21:03;27.27;;;13.48;;
64110;SDS011;50401;48.188;11.566;2022-07-21T04:23:28;27.27;;;11.75;;
64110;SDS011;50401;48.188;11.566;2022-07-21T04:25:54;19.33;;;12.32;;
64110;SDS011;50401;48.188;11.566;2022-07-21T04:28:19;20.63;;;11.57;;
64110;SDS011;50401;48.188;11.566;2022-07-21T04:30:45;25.23;;;12.75;;
64110;SDS011;50401;48.188;11.566;2022-07-21T04:33:10;22.55;;;13.25;;
64110;SDS011;50401;48.188;11.566;2022-07-21T04:35:36;18.83;;;12.45;;
64110;SDS011;50401;48.188;11.566;2022-07-21T04:38:01;21.95;;;13.63;;
64110;SDS011;50401;48.188;11.566;2022-07-21T04:40:27;19.08;;;12.60;;
64110;SDS011;50401;48.188;11.566;2022-07-21T04:42:52;23.30;;;13.40;;
64110;SDS011;50401;48.188;11.566;2022-07-21T04:45:18;23.95;;;13.32;;
64110;SDS011;50401;48.188;11.566;2022-07-21T04:47:47;21.70;;;13.45;;
64110;SDS011;50401;48.188;11.566;2022-07-21T04:50:15;29.35;;;14.05;;
64110;SDS011;50401;48.188;11.566;2022-07-21T04:52:43;32.08;;;13.60;;
64110;SDS011;50401;48.188;11.566;2022-07-21T04:55:09;32.50;;;14.85;;
64110;SDS011;50401;48.188;11.566;2022-07-21T04:57:39;24.80;;;13.77;;
64110;SDS011;50401;48.188;11.566;2022-07-21T05:00:06;24.55;;;13.40;;
64110;SDS011;50401;48.188;11.566;2022-07-21T05:04:59;29.73;;;14.50;;
64110;SDS011;50401;48.188;11.566;2022-07-21T05:07:26;29.20;;;14.57;;
64110;SDS011;50401;48.188;11.566;2022-07-21T05:09:52;25.08;;;14.30;;
64110;SDS011;50401;48.188;11.566;2022-07-21T05:12:17;28.23;;;14.60;;
64110;SDS011;50401;48.188;11.566;2022-07-21T05:14:43;31.50;;;15.00;;
64110;SDS011;50401;48.188;11.566;2022-07-21T05:17:08;36.40;;;14.45;;
64110;SDS011;50401;48.188;11.566;2022-07-21T05:19:33;27.70;;;14.25;;
64110;SDS011;50401;48.188;11.566;2022-07-21T05:21:59;22.63;;;14.43;;
64110;SDS011;50401;48.188;11.566;2022-07-21T05:24:24;28.85;;;15.15;;
64110;SDS011;50401;48.188;11.566;2022-07-21T05:26:49;25.00;;;15.32;;
64110;SDS011;50401;48.188;11.566;2022-07-21T05:29:15;32.10;;;15.35;;
64110;SDS011;50401;48.188;11.566;2022-07-21T05:31:40;30.02;;;14.43;;
64110;SDS011;50401;48.188;11.566;2022-07-21T05:34:06;26.77;;;14.80;;
64110;SDS011;50401;48.188;11.566;2022-07-21T05:36:31;26.10;;;15.07;;
64110;SDS011;50401;48.188;11.566;2022-07-21T05:38:57;45.33;;;15.82;;
64110;SDS011;50401;48.188;11.566;2022-07-21T05:41:22;34.65;;;15.35;;
64110;SDS011;50401;48.188;11.566;2022-07-21T05:43:48;22.42;;;14.63;;
64110;SDS011;50401;48.188;11.566;2022-07-21T05:46:13;25.33;;;14.93;;
64110;SDS011;50401;48.188;11.566;2022-07-21T05:48:39;25.73;;;14.80;;
64110;SDS011;50401;48.188;11.566;2022-07-21T05:51:05;27.25;;;15.30;;
64110;SDS011;50401;48.188;11.566;2022-07-21T05:53:31;25.23;;;15.18;;
64110;SDS011;50401;48.188;11.566;2022-07-21T05:55:56;32.25;;;15.40;;
64110;SDS011;50401;48.188;11.566;2022-07-21T05:58:22;30.98;;;16.10;;
64110;SDS011;50401;48.188;11.566;2022-07-21T06:00:49;29.10;;;14.02;;
64110;SDS011;50401;48.188;11.566;2022-07-21T06:03:33;25.83;;;14.98;;
64110;SDS011;50401;48.188;11.566;2022-07-21T06:06:00;29.58;;;15.18;;
64110;SDS011;50401;48.188;11.566;2022-07-21T06:08:25;26.42;;;15.20;;
64110;SDS011;50401;48.188;11.566;2022-07-21T06:10:50;31.60;;;15.55;;
64110;SDS011;50401;48.188;11.566;2022-07-21T06:13:16;23.77;;;14.93;;
64110;SDS011;50401;48.188;11.566;2022-07-21T06:15:41;22.83;;;14.95;;
64110;SDS011;50401;48.188;11.566;2022-07-21T06:18:07;26.35;;;15.45;;
64110;SDS011;50401;48.188;11.566;2022-07-21T06:20:32;29.85;;;15.05;;
64110;SDS011;50401;48.188;11.566;2022-07-21T06:22:58;20.95;;;14.90;;
64110;SDS011;50401;48.188;11.566;2022-07-21T06:25:23;24.30;;;15.07;;
64110;SDS011;50401;48.188;11.566;2022-07-21T06:27:49;27.95;;;15.02;;
64110;SDS011;50401;48.188;11.566;2022-07-21T06:30:14;32.20;;;16.42;;
64110;SDS011;50401;48.188;11.566;2022-07-21T06:32:39;21.95;;;15.20;;
64110;SDS011;50401;48.188;11.566;2022-07-21T06:35:05;29.88;;;15.48;;
64110;SDS011;50401;48.188;11.566;2022-07-21T06:37:31;28.98;;;15.30;;
64110;SDS011;50401;48.188;11.566;2022-07-21T06:39:57;31.08;;;16.20;;
64110;SDS011;50401;48.188;11.566;2022-07-21T06:42:23;29.98;;;17.27;;
64110;SDS011;50401;48.188;11.566;2022-07-21T06:44:48;32.22;;;16.13;;
64110;SDS011;50401;48.188;11.566;2022-07-21T06:47:13;27.20;;;16.42;;
64110;SDS011;50401;48.188;11.566;2022-07-21T06:49:39;25.85;;;17.02;;
64110;SDS011;50401;48.188;11.566;2022-07-21T06:52:04;29.70;;;18.35;;
64110;SDS011;50401;48.188;11.566;2022-07-21T06:54:30;30.40;;;19.30;;
64110;SDS011;50401;48.188;11.566;2022-07-21T06:56:55;32.17;;;17.73;;
64110;SDS011;50401;48.188;11.566;2022-07-21T06:59:20;35.70;;;18.55;;
64110;SDS011;50401;48.188;11.566;2022-07-21T07:01:46;31.60;;;18.75;;
64110;SDS011;50401;48.188;11.566;2022-07-21T07:04:11;32.72;;;18.65;;
64110;SDS011;50401;48.188;11.566;2022-07-21T07:06:37;30.08;;;19.80;;
64110;SDS011;50401;48.188;11.566;2022-07-21T07:09:02;25.83;;;19.58;;
64110;SDS011;50401;48.188;11.566;2022-07-21T07:11:28;31.92;;;18.88;;
64110;SDS011;50401;48.188;11.566;2022-07-21T07:13:54;32.80;;;17.98;;
64110;SDS011;50401;48.188;11.566;2022-07-21T07:16:20;27.83;;;17.75;;
64110;SDS011;50401;48.188;11.566;2022-07-21T07:18:45;35.38;;;18.63;;
64110;SDS011;50401;48.188;11.566;2022-07-21T07:21:10;29.35;;;17.75;;
64110;SDS011;50401;48.188;11.566;2022-07-21T07:23:36;30.77;;;19.30;;
64110;SDS011;50401;48.188;11.566;2022-07-21T07:26:01;27.45;;;17.55;;
64110;SDS011;50401;48.188;11.566;2022-07-21T07:28:27;35.03;;;19.08;;
64110;SDS011;50401;48.188;11.566;2022-07-21T07:30:52;31.85;;;18.75;;
64110;SDS011;50401;48.188;11.566;2022-07-21T07:33:17;37.70;;;18.98;;
64110;SDS011;50401;48.188;11.566;2022-07-21T07:35:43;40.92;;;19.25;;
64110;SDS011;50401;48.188;11.566;2022-07-21T07:38:12;31.67;;;18.33;;
64110;SDS011;50401;48.188;11.566;2022-07-21T07:40:40;26.25;;;17.65;;
64110;SDS011;50401;48.188;11.566;2022-07-21T07:43:06;33.90;;;18.00;;
64110;SDS011;50401;48.188;11.566;2022-07-21T07:45:32;31.45;;;17.90;;
64110;SDS011;50401;48.188;11.566;2022-07-21T07:47:58;34.53;;;17.88;;
64110;SDS011;50401;48.188;11.566;2022-07-21T07:50:24;25.50;;;17.67;;
64110;SDS011;50401;48.188;11.566;2022-07-21T07:52:49;26.55;;;16.27;;
64110;SDS011;50401;48.188;11.566;2022-07-21T07:55:14;37.35;;;17.73;;
64110;SDS011;50401;48.188;11.566;2022-07-21T07:57:40;36.30;;;18.30;;
64110;SDS011;50401;48.188;11.566;2022-07-21T08:00:09;29.52;;;16.55;;
64110;SDS011;50401;48.188;11.566;2022-07-21T08:02:36;29.40;;;15.85;;
64110;SDS011;50401;48.188;11.566;2022-07-21T08:05:02;25.90;;;16.17;;
64110;SDS011;50401;48.188;11.566;2022-07-21T08:07:28;24.60;;;16.15;;
64110;SDS011;50401;48.188;11.566;2022-07-21T08:09:53;24.88;;;15.32;;
64110;SDS011;50401;48.188;11.566;2022-07-21T08:12:19;21.77;;;16.17;;
64110;SDS011;50401;48.188;11.566;2022-07-21T08:14:44;26.75;;;16.55;;
64110;SDS011;50401;48.188;11.566;2022-07-21T08:17:10;27.27;;;15.25;;
64110;SDS011;50401;48.188;11.566;2022-07-21T08:19:35;30.75;;;15.57;;
64110;SDS011;50401;48.188;11.566;2022-07-21T08:22:01;25.73;;;16.17;;
64110;SDS011;50401;48.188;11.566;2022-07-21T08:24:26;28.42;;;16.40;;
64110;SDS011;50401;48.188;11.566;2022-07-21T08:26:52;23.95;;;16.27;;
64110;SDS011;50401;48.188;11.566;2022-07-21T08:29:17;33.40;;;17.33;;
64110;SDS011;50401;48.188;11.566;2022-07-21T08:31:43;30.08;;;17.13;;
64110;SDS011;50401;48.188;11.566;2022-07-21T08:34:08;24.42;;;16.58;;
64110;SDS011;50401;48.188;11.566;2022-07-21T08:36:34;26.00;;;16.52;;
64110;SDS011;50401;48.188;11.566;2022-07-21T08:38:59;30.95;;;16.90;;
64110;SDS011;50401;48.188;11.566;2022-07-21T08:41:25;30.85;;;15.95;;
64110;SDS011;50401;48.188;11.566;2022-07-21T08:43:50;42.33;;;17.52;;
64110;SDS011;50401;48.188;11.566;2022-07-21T08:46:16;30.70;;;17.38;;
64110;SDS011;50401;48.188;11.566;2022-07-21T08:48:43;31.77;;;16.73;;
64110;SDS011;50401;48.188;11.566;2022-07-21T08:51:09;30.30;;;17.73;;
64110;SDS011;50401;48.188;11.566;2022-07-21T08:53:34;33.40;;;17.42;;
64110;SDS011;50401;48.188;11.566;2022-07-21T08:55:59;35.53;;;18.58;;
64110;SDS011;50401;48.188;11.566;2022-07-21T08:58:25;33.03;;;17.13;;
64110;SDS011;50401;48.188;11.566;2022-07-21T09:00:50;33.58;;;16.23;;
64110;SDS011;50401;48.188;11.566;2022-07-21T09:03:20;34.47;;;16.80;;
64110;SDS011;50401;48.188;11.566;2022-07-21T09:08:37;32.03;;;17.10;;
64110;SDS011;50401;48.188;11.566;2022-07-21T09:11:26;37.85;;;16.77;;
64110;SDS011;50401;48.188;11.566;2022-07-21T09:14:05;26.88;;;16.55;;
64110;SDS011;50401;48.188;11.566;2022-07-21T09:16:36;27.75;;;17.05;;
64110;SDS011;50401;48.188;11.566;2022-07-21T09:19:05;26.40;;;17.10;;
64110;SDS011;50401;48.188;11.566;2022-07-21T09:21:32;25.00;;;16.25;;
64110;SDS011;50401;48.188;11.566;2022-07-21T09:29:37;33.95;;;15.18;;
64110;SDS011;50401;48.188;11.566;2022-07-21T09:32:13;31.48;;;15.90;;
64110;SDS011;50401;48.188;11.566;2022-07-21T09:34:39;24.95;;;15.00;;
64110;SDS011;50401;48.188;11.566;2022-07-21T09:37:05;20.85;;;14.50;;
64110;SDS011;50401;48.188;11.566;2022-07-21T09:42:24;28.88;;;14.70;;
64110;SDS011;50401;48.188;11.566;2022-07-21T09:44:51;31.63;;;15.77;;
64110;SDS011;50401;48.188;11.566;2022-07-21T09:47:19;23.00;;;15.60;;
64110;SDS011;50401;48.188;11.566;2022-07-21T09:49:46;32.67;;;15.70;;
64110;SDS011;50401;48.188;11.566;2022-07-21T09:52:26;37.47;;;16.38;;
64110;SDS011;50401;48.188;11.566;2022-07-21T09:54:57;35.33;;;14.88;;
64110;SDS011;50401;48.188;11.566;2022-07-21T09:57:31;23.83;;;14.13;;
64110;SDS011;50401;48.188;11.566;2022-07-21T09:59:57;30.33;;;15.30;;
64110;SDS011;50401;48.188;11.566;2022-07-21T10:02:27;24.30;;;15.02;;
64110;SDS011;50401;48.188;11.566;2022-07-21T10:07:24;27.77;;;15.80;;
64110;SDS011;50401;48.188;11.566;2022-07-21T10:09:50;29.80;;;16.65;;
64110;SDS011;50401;48.188;11.566;2022-07-21T10:12:16;33.15;;;18.33;;
64110;SDS011;50401;48.188;11.566;2022-07-21T10:14:42;31.92;;;20.05;;
64110;SDS011;50401;48.188;11.566;2022-07-21T10:17:08;29.10;;;19.48;;
64110;SDS011;50401;48.188;11.566;2022-07-21T10:25:34;33.70;;;20.35;;
64110;SDS011;50401;48.188;11.566;2022-07-21T10:30:40;26.13;;;17.98;;
64110;SDS011;50401;48.188;11.566;2022-07-21T10:33:07;29.08;;;18.80;;
64110;SDS011;50401;48.188;11.566;2022-07-21T10:35:33;28.98;;;19.52;;
64110;SDS011;50401;48.188;11.566;2022-07-21T10:37:59;31.95;;;20.15;;
64110;SDS011;50401;48.188;11.566;2022-07-21T10:45:32;27.50;;;19.55;;
64110;SDS011;50401;48.188;11.566;2022-07-21T10:48:08;36.75;;;20.48;;
64110;SDS011;50401;48.188;11.566;2022-07-21T10:50:54;32.20;;;20.42;;
64110;SDS011;50401;48.188;11.566;2022-07-21T10:55:51;29.23;;;20.83;;
64110;SDS011;50401;48.188;11.566;2022-07-21T10:58:25;34.55;;;22.13;;
64110;SDS011;50401;48.188;11.566;2022-07-21T11:00:54;36.50;;;20.92;;
64110;SDS011;50401;48.188;11.566;2022-07-21T11:03:31;38.95;;;23.15;;
64110;SDS011;50401;48.188;11.566;2022-07-21T11:11:28;40.13;;;21.05;;
64110;SDS011;50401;48.188;11.566;2022-07-21T11:14:14;46.47;;;22.60;;
64110;SDS011;50401;48.188;11.566;2022-07-21T11:22:14;32.25;;;20.35;;
64110;SDS011;50401;48.188;11.566;2022-07-21T11:27:44;49.80;;;22.48;;
64110;SDS011;50401;48.188;11.566;2022-07-21T11:30:09;42.65;;;19.95;;
64110;SDS011;50401;48.188;11.566;2022-07-21T11:32:35;36.13;;;20.05;;
64110;SDS011;50401;48.188;11.566;2022-07-21T11:35:03;38.00;;;19.83;;
64110;SDS011;50401;48.188;11.566;2022-07-21T11:39:58;33.35;;;20.05;;
64110;SDS011;50401;48.188;11.566;2022-07-21T11:42:24;46.95;;;21.65;;
64110;SDS011;50401;48.188;11.566;2022-07-21T11:44:51;42.00;;;20.63;;
64110;SDS011;50401;48.188;11.566;2022-07-21T11:47:16;33.83;;;19.08;;
64110;SDS011;50401;48.188;11.566;2022-07-21T11:49:43;32.88;;;18.98;;
64110;SDS011;50401;48.188;11.566;2022-07-21T11:52:12;31.05;;;20.23;;
64110;SDS011;50401;48.188;11.566;2022-07-21T11:54:43;33.30;;;20.38;;
64110;SDS011;50401;48.188;11.566;2022-07-21T11:57:10;33.58;;;19.55;;
64110;SDS011;50401;48.188;11.566;2022-07-21T11:59:36;39.40;;;20.88;;
64110;SDS011;50401;48.188;11.566;2022-07-21T12:02:09;39.45;;;20.17;;
64110;SDS011;50401;48.188;11.566;2022-07-21T12:04:48;41.10;;;20.48;;
64110;SDS011;50401;48.188;11.566;2022-07-21T12:07:17;39.55;;;19.88;;
64110;SDS011;50401;48.188;11.566;2022-07-21T12:09:48;35.58;;;20.17;;
64110;SDS011;50401;48.188;11.566;2022-07-21T12:14:51;33.63;;;20.45;;
64110;SDS011;50401;48.188;11.566;2022-07-21T12:17:19;28.55;;;19.92;;
64110;SDS011;50401;48.188;11.566;2022-07-21T12:19:57;34.15;;;20.10;;
64110;SDS011;50401;48.188;11.566;2022-07-21T12:25:11;31.25;;;19.95;;
64110;SDS011;50401;48.188;11.566;2022-07-21T12:27:39;31.20;;;20.20;;
64110;SDS011;50401;48.188;11.566;2022-07-21T12:30:06;32.15;;;22.05;;
64110;SDS011;50401;48.188;11.566;2022-07-21T12:32:37;30.38;;;19.75;;
64110;SDS011;50401;48.188;11.566;2022-07-21T12:35:20;41.33;;;21.60;;
64110;SDS011;50401;48.188;11.566;2022-07-21T12:37:51;31.23;;;20.58;;
64110;SDS011;50401;48.188;11.566;2022-07-21T12:40:48;32.05;;;19.52;;
64110;SDS011;50401;48.188;11.566;2022-07-21T12:43:18;34.72;;;20.45;;
64110;SDS011;50401;48.188;11.566;2022-07-21T12:48:33;28.48;;;19.90;;
64110;SDS011;50401;48.188;11.566;2022-07-21T12:53:36;29.05;;;16.98;;
64110;SDS011;50401;48.188;11.566;2022-07-21T12:56:07;25.73;;;18.40;;
64110;SDS011;50401;48.188;11.566;2022-07-21T12:58:33;27.70;;;18.10;;
64110;SDS011;50401;48.188;11.566;2022-07-21T13:00:58;31.35;;;19.58;;
64110;SDS011;50401;48.188;11.566;2022-07-21T13:03:26;27.90;;;19.35;;
64110;SDS011;50401;48.188;11.566;2022-07-21T13:05:52;35.58;;;19.27;;
64110;SDS011;50401;48.188;11.566;2022-07-21T13:08:18;26.80;;;18.02;;
64110;SDS011;50401;48.188;11.566;2022-07-21T13:10:44;27.55;;;18.40;;
64110;SDS011;50401;48.188;11.566;2022-07-21T13:13:09;26.17;;;19.02;;
64110;SDS011;50401;48.188;11.566;2022-07-21T13:15:35;32.15;;;17.55;;
64110;SDS011;50401;48.188;11.566;2022-07-21T13:18:00;35.55;;;19.35;;
64110;SDS011;50401;48.188;11.566;2022-07-21T13:20:26;31.73;;;20.65;;
64110;SDS011;50401;48.188;11.566;2022-07-21T13:22:51;27.65;;;17.65;;
64110;SDS011;50401;48.188;11.566;2022-07-21T13:25:16;25.10;;;17.63;;
64110;SDS011;50401;48.188;11.566;2022-07-21T13:27:42;28.42;;;18.45;;
64110;SDS011;50401;48.188;11.566;2022-07-21T13:30:07;29.45;;;18.90;;
64110;SDS011;50401;48.188;11.566;2022-07-21T13:32:34;25.42;;;18.10;;
64110;SDS011;50401;48.188;11.566;2022-07-21T13:35:00;25.70;;;18.08;;
64110;SDS011;50401;48.188;11.566;2022-07-21T13:37:26;28.38;;;17.10;;
64110;SDS011;50401;48.188;11.566;2022-07-21T13:39:52;33.30;;;18.00;;
64110;SDS011;50401;48.188;11.566;2022-07-21T13:42:17;26.52;;;17.50;;
64110;SDS011;50401;48.188;11.566;2022-07-21T13:44:43;29.30;;;17.70;;
64110;SDS011;50401;48.188;11.566;2022-07-21T13:47:08;27.92;;;18.42;;
64110;SDS011;50401;48.188;11.566;2022-07-21T13:49:34;28.92;;;19.02;;
64110;SDS011;50401;48.188;11.566;2022-07-21T13:51:59;31.88;;;19.10;;
64110;SDS011;50401;48.188;11.566;2022-07-21T13:54:25;30.88;;;20.42;;
64110;SDS011;50401;48.188;11.566;2022-07-21T13:56:50;29.83;;;19.38;;
64110;SDS011;50401;48.188;11.566;2022-07-21T13:59:16;29.38;;;19.33;;
64110;SDS011;50401;48.188;11.566;2022-07-21T14:01:41;36.78;;;18.52;;
64110;SDS011;50401;48.188;11.566;2022-07-21T14:04:07;26.10;;;18.30;;
64110;SDS011;50401;48.188;11.566;2022-07-21T14:06:33;25.75;;;17.08;;
64110;SDS011;50401;48.188;11.566;2022-07-21T14:08:58;37.50;;;20.23;;
64110;SDS011;50401;48.188;11.566;2022-07-21T14:11:23;28.02;;;16.73;;
64110;SDS011;50401;48.188;11.566;2022-07-21T14:16:18;24.42;;;14.70;;
64110;SDS011;50401;48.188;11.566;2022-07-21T14:18:43;29.83;;;15.70;;
64110;SDS011;50401;48.188;11.566;2022-07-21T14:21:09;24.15;;;14.90;;
64110;SDS011;50401;48.188;11.566;2022-07-21T14:23:35;22.23;;;14.63;;
64110;SDS011;50401;48.188;11.566;2022-07-21T14:26:01;29.95;;;15.85;;
64110;SDS011;50401;48.188;11.566;2022-07-21T14:28:27;27.88;;;16.88;;
64110;SDS011;50401;48.188;11.566;2022-07-21T14:30:52;22.83;;;15.73;;
64110;SDS011;50401;48.188;11.566;2022-07-21T14:33:18;27.42;;;16.00;;
64110;SDS011;50401;48.188;11.566;2022-07-21T14:35:46;29.85;;;15.20;;
64110;SDS011;50401;48.188;11.566;2022-07-21T14:38:11;23.42;;;14.55;;
64110;SDS011;50401;48.188;11.566;2022-07-21T14:40:37;24.35;;;14.10;;
64110;SDS011;50401;48.188;11.566;2022-07-21T14:43:03;22.30;;;14.77;;
64110;SDS011;50401;48.188;11.566;2022-07-21T14:45:29;20.98;;;14.93;;
64110;SDS011;50401;48.188;11.566;2022-07-21T14:47:56;23.30;;;15.15;;
64110;SDS011;50401;48.188;11.566;2022-07-21T14:50:22;19.02;;;13.80;;
64110;SDS011;50401;48.188;11.566;2022-07-21T14:52:50;36.65;;;17.23;;
64110;SDS011;50401;48.188;11.566;2022-07-21T14:55:16;23.58;;;14.65;;
64110;SDS011;50401;48.188;11.566;2022-07-21T14:57:42;28.70;;;16.00;;
64110;SDS011;50401;48.188;11.566;2022-07-21T15:00:08;27.67;;;16.27;;
64110;SDS011;50401;48.188;11.566;2022-07-21T15:02:34;22.30;;;15.27;;
64110;SDS011;50401;48.188;11.566;2022-07-21T15:05:00;18.50;;;13.60;;
64110;SDS011;50401;48.188;11.566;2022-07-21T15:07:26;23.75;;;15.30;;
64110;SDS011;50401;48.188;11.566;2022-07-21T15:09:51;17.83;;;12.73;;
64110;SDS011;50401;48.188;11.566;2022-07-21T15:12:17;24.30;;;14.30;;
64110;SDS011;50401;48.188;11.566;2022-07-21T15:14:42;20.17;;;15.40;;